createdAt,value
2018-09-27T00:02:58.791Z,11.66
2018-09-27T00:07:41.623Z,11.76
2018-09-27T00:12:24.581Z,11.76
2018-09-27T00:17:07.683Z,11.63
2018-09-27T00:21:51.194Z,11.58
2018-09-27T00:26:34.039Z,11.62
2018-09-27T00:31:18.104Z,11.52
2018-09-27T00:36:01.004Z,11.51
2018-09-27T00:40:43.888Z,11.57
2018-09-27T00:45:28.176Z,11.57
2018-09-27T00:50:11.240Z,11.60
2018-09-27T00:54:55.347Z,11.48
2018-09-27T00:59:38.206Z,11.37
2018-09-27T01:04:21.152Z,11.41
2018-09-27T01:09:05.473Z,11.48
2018-09-27T01:13:48.387Z,11.45
2018-09-27T01:18:31.231Z,11.36
2018-09-27T01:23:14.151Z,11.44
2018-09-27T01:27:57.003Z,11.25
2018-09-27T01:32:40.955Z,11.27
2018-09-27T01:37:23.838Z,11.18
2018-09-27T01:42:07.732Z,11.03
2018-09-27T01:46:52.678Z,11.23
2018-09-27T01:51:36.608Z,11.08
2018-09-27T01:56:19.498Z,11.28
2018-09-27T02:01:02.601Z,11.19
2018-09-27T02:05:45.449Z,11.17
2018-09-27T02:10:28.302Z,11.15
2018-09-27T02:15:11.247Z,10.84
2018-09-27T02:19:54.089Z,10.81
2018-09-27T02:24:39.059Z,10.86
2018-09-27T02:29:21.881Z,10.83
2018-09-27T02:34:04.952Z,10.68
2018-09-27T02:38:47.797Z,10.77
2018-09-27T02:43:30.872Z,10.53
2018-09-27T02:48:13.737Z,10.51
2018-09-27T02:52:58.040Z,10.75
2018-09-27T02:57:40.882Z,10.28
2018-09-27T03:02:23.910Z,10.43
2018-09-27T03:07:07.200Z,10.46
2018-09-27T03:11:50.228Z,10.44
2018-09-27T03:16:33.067Z,10.56
2018-09-27T03:21:17.009Z,10.30
2018-09-27T03:25:59.863Z,10.25
2018-09-27T03:30:42.763Z,10.20
2018-09-27T03:35:25.646Z,10.03
2018-09-27T03:40:08.983Z,10.49
2018-09-27T03:44:51.917Z,10.08
2018-09-27T03:49:34.779Z,10.13
2018-09-27T03:54:17.684Z,9.98
2018-09-27T03:59:02.295Z,10.23
2018-09-27T04:03:46.281Z,10.04
2018-09-27T04:08:29.104Z,9.86
2018-09-27T04:13:12.589Z,9.90
2018-09-27T04:17:55.444Z,10.02
2018-09-27T04:22:38.331Z,10.03
2018-09-27T04:27:21.198Z,9.91
2018-09-27T04:32:04.111Z,9.91
2018-09-27T04:36:47.007Z,10.02
2018-09-27T04:41:33.708Z,10.16
2018-09-27T04:46:16.570Z,10.26
2018-09-27T04:50:59.487Z,10.29
2018-09-27T04:55:42.344Z,10.43
2018-09-27T05:00:28.551Z,10.44
2018-09-27T05:05:11.441Z,10.42
2018-09-27T05:09:54.280Z,10.36
2018-09-27T05:14:37.169Z,10.40
2018-09-27T05:19:20.087Z,10.48
2018-09-27T05:24:03.315Z,10.45
2018-09-27T05:28:46.232Z,10.67
2018-09-27T05:33:29.272Z,10.61
2018-09-27T05:38:12.150Z,10.66
2018-09-27T05:42:56.036Z,10.77
2018-09-27T05:47:38.907Z,10.83
2018-09-27T05:52:21.797Z,10.82
2018-09-27T05:57:04.666Z,10.86
2018-09-27T06:01:47.561Z,11.04
2018-09-27T06:06:30.424Z,10.89
2018-09-27T06:11:13.338Z,11.24
2018-09-27T06:15:56.196Z,11.22
2018-09-27T06:20:39.078Z,11.40
2018-09-27T06:25:21.939Z,11.55
2018-09-27T06:30:04.984Z,11.67
2018-09-27T06:34:47.824Z,11.92
2018-09-27T06:39:32.738Z,12.04
2018-09-27T06:44:15.807Z,11.97
2018-09-27T06:48:58.682Z,12.01
2018-09-27T06:53:41.720Z,12.25
2018-09-27T06:58:24.646Z,12.62
2018-09-27T07:03:07.594Z,12.38
2018-09-27T07:07:50.452Z,12.92
2018-09-27T07:12:33.438Z,12.77
2018-09-27T07:17:17.527Z,13.09
2018-09-27T07:22:00.392Z,13.11
2018-09-27T07:26:43.438Z,13.52
2018-09-27T07:31:26.508Z,13.56
2018-09-27T07:36:09.402Z,13.77
2018-09-27T07:40:52.461Z,13.84
2018-09-27T07:45:35.405Z,13.69
2018-09-27T07:50:18.475Z,13.74
2018-09-27T07:55:01.337Z,14.02
2018-09-27T07:59:44.221Z,14.09
2018-09-27T08:04:27.082Z,14.59
2018-09-27T08:09:09.956Z,14.41
2018-09-27T08:13:52.871Z,14.41
2018-09-27T08:18:35.831Z,14.60
2018-09-27T08:23:19.919Z,14.70
2018-09-27T08:28:02.791Z,15.13
2018-09-27T08:32:45.662Z,15.03
2018-09-27T08:37:28.576Z,15.07
2018-09-27T08:42:11.454Z,15.14
2018-09-27T08:46:54.357Z,15.24
2018-09-27T08:51:38.444Z,15.36
2018-09-27T08:56:21.374Z,15.59
2018-09-27T09:01:04.310Z,16.00
2018-09-27T09:05:47.275Z,16.11
2018-09-27T09:10:30.604Z,16.36
2018-09-27T09:15:13.633Z,17.01
2018-09-27T09:19:56.575Z,17.24
2018-09-27T09:24:39.445Z,17.60
2018-09-27T09:29:22.946Z,17.15
2018-09-27T09:34:06.375Z,17.47
2018-09-27T09:38:57.147Z,17.64
2018-09-27T09:43:40.292Z,17.98
2018-09-27T09:48:23.159Z,18.08
2018-09-27T09:53:07.296Z,18.07
2018-09-27T09:57:50.168Z,18.22
2018-09-27T10:02:33.397Z,19.00
2018-09-27T10:07:16.308Z,19.15
2018-09-27T10:12:00.408Z,19.57
2018-09-27T10:16:43.300Z,19.77
2018-09-27T10:21:27.469Z,19.87
2018-09-27T10:26:11.563Z,20.33
2018-09-27T10:32:24.894Z,20.96
2018-09-27T10:37:07.760Z,21.02
2018-09-27T10:41:50.803Z,21.35
2018-09-27T10:46:33.658Z,21.89
2018-09-27T10:51:17.688Z,22.41
2018-09-27T10:56:00.565Z,22.30
2018-09-27T11:00:44.727Z,21.18
2018-09-27T11:05:27.686Z,20.82
2018-09-27T11:10:19.183Z,21.12
2018-09-27T11:15:09.680Z,21.49
2018-09-27T11:20:10.766Z,22.00
2018-09-27T11:24:55.823Z,22.01
2018-09-27T11:29:44.519Z,21.53
2018-09-27T11:34:27.411Z,24.09
2018-09-27T11:39:11.020Z,24.61
2018-09-27T11:43:53.993Z,24.47
2018-09-27T11:48:36.845Z,23.54
2018-09-27T11:53:19.874Z,24.21
2018-09-27T11:58:02.717Z,25.94
2018-09-27T12:02:45.628Z,24.66
2018-09-27T12:07:28.599Z,22.10
2018-09-27T12:12:11.677Z,22.80
2018-09-27T12:16:54.576Z,22.23
2018-09-27T12:21:37.686Z,22.93
2018-09-27T12:26:21.650Z,22.42
2018-09-27T12:31:21.388Z,22.44
2018-09-27T12:36:04.764Z,22.16
2018-09-27T12:40:48.686Z,22.09
2018-09-27T12:45:31.582Z,22.07
2018-09-27T12:50:14.750Z,22.14
2018-09-27T12:54:57.623Z,21.93
2018-09-27T12:59:40.931Z,21.89
2018-09-27T13:04:24.209Z,20.86
2018-09-27T13:09:09.292Z,21.12
2018-09-27T13:13:52.951Z,21.04
2018-09-27T13:18:35.836Z,20.79
2018-09-27T13:23:19.738Z,20.55
2018-09-27T13:28:02.645Z,20.49
2018-09-27T13:32:45.801Z,20.53
2018-09-27T13:37:28.648Z,20.24
2018-09-27T13:42:12.869Z,19.83
2018-09-27T13:46:56.110Z,19.96
2018-09-27T13:51:40.111Z,19.50
2018-09-27T13:56:22.954Z,19.83
2018-09-27T14:01:05.997Z,19.89
2018-09-27T14:05:48.923Z,19.89
2018-09-27T14:10:31.922Z,19.64
2018-09-27T14:15:14.772Z,19.77
2018-09-27T14:19:57.695Z,19.60
2018-09-27T14:24:40.565Z,19.41
2018-09-27T14:29:24.455Z,19.22
2018-09-27T14:34:08.399Z,19.20
2018-09-27T14:38:51.519Z,19.25
2018-09-27T14:43:34.430Z,19.37
2018-09-27T14:48:17.303Z,19.15
2018-09-27T14:53:02.205Z,19.09
2018-09-27T14:57:45.126Z,18.99
2018-09-27T15:07:28.441Z,18.61
2018-09-27T15:12:12.690Z,18.49
2018-09-27T15:16:55.797Z,18.39
2018-09-27T15:21:40.050Z,18.48
2018-09-27T15:26:23.233Z,18.49
2018-09-27T15:31:07.682Z,18.32
2018-09-27T15:35:50.823Z,18.42
2018-09-27T15:40:38.203Z,18.41
2018-09-27T15:45:21.366Z,18.68
2018-09-27T15:50:04.891Z,18.65
2018-09-27T15:54:48.001Z,17.92
2018-09-27T15:59:31.249Z,18.13
2018-09-27T16:04:14.420Z,17.81
2018-09-27T16:08:57.755Z,17.31
2018-09-27T16:13:40.903Z,17.03
2018-09-27T16:18:24.262Z,16.82
2018-09-27T16:23:07.555Z,16.53
2018-09-27T16:27:50.668Z,16.40
2018-09-27T16:32:34.017Z,17.03
2018-09-27T16:37:17.139Z,16.98
2018-09-27T16:42:01.821Z,17.26
2018-09-27T16:46:45.259Z,17.35
2018-09-27T16:51:28.709Z,17.16
2018-09-27T16:56:11.829Z,16.69
2018-09-27T17:01:00.216Z,16.03
2018-09-27T17:05:43.448Z,16.17
2018-09-27T17:10:28.314Z,15.88
2018-09-27T17:15:11.434Z,15.43
2018-09-27T17:19:54.644Z,15.30
2018-09-27T17:24:38.318Z,15.64
2018-09-27T17:29:21.672Z,15.51
2018-09-27T17:34:04.807Z,15.12
2018-09-27T17:38:48.613Z,15.26
2018-09-27T17:43:31.789Z,15.28
2018-09-27T17:48:15.012Z,15.00
2018-09-27T17:52:58.144Z,14.92
2018-09-27T17:57:41.289Z,15.07
2018-09-27T18:02:34.427Z,15.23
2018-09-27T18:07:17.753Z,14.84
2018-09-27T18:12:00.800Z,15.11
2018-09-27T18:16:43.804Z,14.97
2018-09-27T18:21:26.929Z,15.04
2018-09-27T18:26:10.177Z,15.00
2018-09-27T18:30:54.343Z,14.99
2018-09-27T18:35:37.295Z,15.00
2018-09-27T18:40:22.154Z,14.81
2018-09-27T18:45:05.787Z,14.83
2018-09-27T18:49:50.136Z,14.83
2018-09-27T18:54:36.337Z,14.92
2018-09-27T18:59:19.494Z,14.61
2018-09-27T19:04:02.619Z,14.47
2018-09-27T19:08:46.512Z,13.89
2018-09-27T19:13:29.830Z,13.77
2018-09-27T19:18:18.336Z,13.89
2018-09-27T19:23:01.253Z,13.91
2018-09-27T19:28:47.159Z,13.90
2018-09-27T19:33:30.232Z,14.10
2018-09-27T19:38:13.273Z,13.95
2018-09-27T19:42:56.267Z,13.86
2018-09-27T19:47:39.161Z,13.77
2018-09-27T19:52:22.569Z,14.03
2018-09-27T19:57:05.432Z,13.83
2018-09-27T20:01:48.396Z,13.89
2018-09-27T20:06:31.782Z,13.77
2018-09-27T20:11:14.986Z,13.81
2018-09-27T20:15:57.920Z,13.62
2018-09-27T20:20:40.931Z,13.56
2018-09-27T20:25:23.823Z,13.46
2018-09-27T20:30:08.070Z,13.42
2018-09-27T20:34:51.029Z,13.41
2018-09-27T20:39:35.029Z,13.37
2018-09-27T20:44:17.979Z,13.33
2018-09-27T20:49:01.398Z,13.24
2018-09-27T20:53:44.868Z,13.25
2018-09-27T20:58:27.834Z,13.11
2018-09-27T21:03:10.886Z,13.12
2018-09-27T21:07:53.707Z,13.10
2018-09-27T21:12:36.566Z,13.05
2018-09-27T21:17:19.498Z,13.04
2018-09-27T21:22:03.474Z,12.90
2018-09-27T21:26:46.656Z,12.95
2018-09-27T21:31:30.925Z,13.05
2018-09-27T21:36:14.060Z,12.91
2018-09-27T21:40:58.073Z,12.88
2018-09-27T21:45:40.906Z,12.83
2018-09-27T21:50:24.943Z,12.85
2018-09-27T21:55:07.873Z,12.82
2018-09-27T21:59:51.370Z,12.90
2018-09-27T22:04:34.306Z,13.57
2018-09-27T22:09:17.165Z,13.77
2018-09-27T22:14:00.447Z,13.90
2018-09-27T22:18:43.458Z,13.81
2018-09-27T22:23:26.376Z,13.77
2018-09-27T22:28:09.581Z,12.57
2018-09-27T22:32:52.500Z,12.37
2018-09-27T22:37:35.291Z,12.40
2018-09-27T22:42:18.124Z,12.25
2018-09-27T22:47:01.001Z,12.27
2018-09-27T22:51:43.879Z,12.13
2018-09-27T22:56:27.189Z,12.20
2018-09-27T23:01:11.569Z,12.18
2018-09-27T23:05:54.403Z,12.21
2018-09-27T23:19:36.692Z,13.13
2018-09-27T23:24:19.501Z,11.96
2018-09-27T23:29:02.370Z,11.99
2018-09-27T23:33:45.258Z,12.03
2018-09-27T23:38:28.291Z,12.72
2018-09-27T23:43:33.549Z,13.04
2018-09-27T23:53:42.258Z,13.03
2018-09-27T23:58:26.123Z,12.09
